Time;durP1;ratioP1;P1;durP2;ratioP2;P2;SDS_P1;SDS_P2;PMS_P1;PMS_P2;Temp;Humidity;BMP_temperature;BMP_pressure;BME280_temperature;BME280_humidity;BME280_pressure;Samples;Min_cycle;Max_cycle;Signal;HPM_P1;HPM_P2
2022/06/14 00:03:12;;;;;;;5.43;4.67;;;15.10;99.90;;;;;;5018987;28;20835;-80
2022/06/14 00:05:39;;;;;;;5.87;4.77;;;14.90;99.90;;;;;;5019239;28;20959;-80
2022/06/14 00:08:06;;;;;;;6.73;6.03;;;14.90;99.90;;;;;;5020354;28;20478;-80
2022/06/14 00:10:33;;;;;;;5.47;5.07;;;14.80;99.90;;;;;;5020545;28;20458;-80
2022/06/14 00:13:00;;;;;;;7.60;4.27;;;14.90;99.90;;;;;;5019714;28;20446;-79
2022/06/14 00:15:28;;;;;;;5.33;4.77;;;14.90;99.90;;;;;;5019265;28;20470;-80
2022/06/14 00:17:55;;;;;;;5.13;4.00;;;14.80;99.90;;;;;;5018935;28;20474;-80
2022/06/14 00:20:22;;;;;;;8.07;4.30;;;14.80;99.90;;;;;;5018913;28;20490;-80
2022/06/14 00:22:49;;;;;;;4.90;4.37;;;14.70;99.90;;;;;;5019452;28;20465;-79
2022/06/14 00:25:25;;;;;;;5.20;4.67;;;14.60;99.90;;;;;;5018925;28;20455;-80
2022/06/14 00:27:53;;;;;;;6.53;4.67;;;14.60;99.90;;;;;;5018874;28;20545;-80
2022/06/14 00:30:20;;;;;;;6.13;4.57;;;14.60;99.90;;;;;;5019143;28;20479;-80
2022/06/14 00:32:49;;;;;;;8.63;4.93;;;14.50;99.90;;;;;;5019330;28;20445;-80
2022/06/14 00:35:16;;;;;;;6.50;5.00;;;14.60;99.90;;;;;;5019102;28;20455;-80
2022/06/14 00:37:43;;;;;;;5.03;4.57;;;14.50;99.90;;;;;;5019145;28;20450;-80
2022/06/14 00:40:13;;;;;;;4.97;4.57;;;14.50;99.90;;;;;;5018290;28;20461;-80
2022/06/14 00:42:40;;;;;;;6.10;4.57;;;14.50;99.90;;;;;;5018384;28;20455;-80
2022/06/14 00:45:29;;;;;;;6.60;4.90;;;14.50;99.90;;;;;;4999585;28;20464;-80
2022/06/14 00:48:02;;;;;;;7.17;5.20;;;14.50;99.90;;;;;;5000125;28;20482;-80
2022/06/14 00:50:33;;;;;;;6.33;5.30;;;14.50;99.90;;;;;;5018939;28;20440;-80
2022/06/14 00:53:04;;;;;;;6.10;4.50;;;14.50;99.90;;;;;;5018394;28;20469;-79
2022/06/14 00:55:37;;;;;;;4.80;4.40;;;14.40;99.90;;;;;;5018966;28;20454;-79
2022/06/14 00:58:11;;;;;;;5.60;5.20;;;14.30;99.90;;;;;;5018417;28;20470;-80
2022/06/14 01:00:47;;;;;;;6.53;5.73;;;14.40;99.90;;;;;;5017868;28;20485;-80
2022/06/14 01:03:21;;;;;;;6.73;5.97;;;14.30;99.90;;;;;;5018570;28;20457;-80
2022/06/14 01:06:07;;;;;;;7.00;5.73;;;14.40;99.90;;;;;;5018280;28;20940;-80
2022/06/14 01:08:37;;;;;;;6.30;5.10;;;14.30;99.90;;;;;;5018532;28;20505;-80
2022/06/14 01:11:04;;;;;;;6.57;5.77;;;14.30;99.90;;;;;;5017917;28;20446;-80
2022/06/14 01:13:31;;;;;;;7.60;4.90;;;14.30;99.90;;;;;;5017108;28;20446;-80
2022/06/14 01:15:58;;;;;;;4.80;4.40;;;14.30;99.90;;;;;;5017227;28;20461;-80
2022/06/14 01:18:28;;;;;;;5.53;5.00;;;14.20;99.90;;;;;;5018450;28;20474;-80
2022/06/14 01:20:55;;;;;;;7.13;5.30;;;14.30;99.90;;;;;;5017362;28;20486;-80
2022/06/14 01:23:23;;;;;;;7.20;5.20;;;14.20;99.90;;;;;;5017777;28;20446;-80
2022/06/14 01:25:54;;;;;;;7.10;6.13;;;14.20;99.90;;;;;;5019012;28;20455;-79
2022/06/14 01:28:24;;;;;;;9.80;6.03;;;14.10;99.90;;;;;;5018737;28;20481;-80
2022/06/14 01:30:53;;;;;;;5.87;5.37;;;14.20;99.90;;;;;;5018244;28;20509;-80
2022/06/14 01:33:24;;;;;;;6.60;6.00;;;14.20;99.90;;;;;;5016987;28;20450;-80
2022/06/14 01:35:56;;;;;;;5.27;4.83;;;14.20;99.90;;;;;;4998489;28;20452;-80
2022/06/14 01:38:24;;;;;;;5.63;4.90;;;14.10;99.90;;;;;;5015025;28;20999;-80
2022/06/14 01:41:01;;;;;;;6.53;5.33;;;14.10;99.90;;;;;;5016385;28;21002;-80
2022/06/14 01:43:42;;;;;;;9.03;6.47;;;14.10;99.90;;;;;;5017418;28;20451;-80
2022/06/14 01:46:21;;;;;;;7.83;4.50;;;14.00;99.90;;;;;;5017646;28;20956;-80
2022/06/14 01:51:50;;;;;;;6.27;5.77;;;14.00;99.90;;;;;;5016872;28;20936;-80
2022/06/14 01:51:52;;;;;;;5.53;5.00;;;14.00;99.90;;;;;;5016845;28;20838;-79
2022/06/14 01:54:25;;;;;;;5.50;5.00;;;14.00;99.90;;;;;;5017495;28;20441;-79
2022/06/14 01:57:01;;;;;;;7.27;6.57;;;13.90;99.90;;;;;;5017164;28;20819;-80
2022/06/14 01:59:37;;;;;;;5.30;4.80;;;13.90;99.90;;;;;;5016763;28;20488;-79
2022/06/14 02:02:09;;;;;;;11.40;6.03;;;13.90;99.90;;;;;;5017049;28;20568;-80
2022/06/14 02:04:41;;;;;;;7.27;6.67;;;13.80;99.90;;;;;;5016879;28;20454;-80
2022/06/14 02:07:14;;;;;;;7.67;6.50;;;13.80;99.90;;;;;;5017436;28;20450;-80
2022/06/14 02:09:52;;;;;;;5.60;5.03;;;13.80;99.90;;;;;;5016731;28;20477;-80
2022/06/14 02:12:23;;;;;;;10.90;6.50;;;13.70;99.90;;;;;;5016718;28;20454;-80
2022/06/14 02:14:58;;;;;;;8.03;7.00;;;13.70;99.90;;;;;;5017105;28;20457;-80
2022/06/14 02:17:30;;;;;;;6.73;5.30;;;13.70;99.90;;;;;;5017424;28;20452;-80
2022/06/14 02:20:01;;;;;;;8.77;6.33;;;13.70;99.90;;;;;;5017201;28;20458;-80
2022/06/14 02:22:33;;;;;;;10.00;6.53;;;13.70;99.90;;;;;;5016302;28;20508;-80
2022/06/14 02:25:06;;;;;;;8.57;6.60;;;13.60;99.90;;;;;;5016739;28;20867;-80
2022/06/14 02:27:36;;;;;;;7.47;6.77;;;13.60;99.90;;;;;;5017019;28;20457;-80
2022/06/14 02:30:08;;;;;;;6.37;5.87;;;13.50;99.90;;;;;;5016525;28;20449;-79
2022/06/14 02:32:41;;;;;;;7.83;6.10;;;13.50;99.90;;;;;;5017251;28;20460;-79
2022/06/14 02:35:11;;;;;;;7.97;6.73;;;13.50;99.90;;;;;;5016381;28;20465;-80
2022/06/14 02:37:42;;;;;;;9.23;6.93;;;13.50;99.90;;;;;;5016882;28;20453;-80
2022/06/14 02:40:17;;;;;;;7.27;6.20;;;13.40;99.90;;;;;;5016977;28;20632;-80
2022/06/14 02:42:49;;;;;;;7.67;6.97;;;13.40;99.90;;;;;;5017030;28;21019;-79
2022/06/14 02:45:22;;;;;;;6.60;6.10;;;13.40;99.90;;;;;;5016706;28;20454;-80
2022/06/14 02:47:57;;;;;;;7.43;5.57;;;13.30;99.90;;;;;;5016373;28;20474;-80
2022/06/14 02:50:29;;;;;;;6.90;6.20;;;13.20;99.90;;;;;;5016395;28;20465;-80
2022/06/14 02:53:01;;;;;;;7.50;6.40;;;13.20;99.90;;;;;;5016784;28;20465;-80
2022/06/14 02:55:34;;;;;;;6.70;6.07;;;13.20;99.90;;;;;;5016697;28;21020;-80
2022/06/14 02:58:07;;;;;;;7.23;6.53;;;13.20;99.90;;;;;;5016301;28;20473;-79
2022/06/14 03:00:39;;;;;;;9.93;6.77;;;13.20;99.90;;;;;;5016734;28;20453;-80
2022/06/14 03:03:10;;;;;;;6.83;6.10;;;13.10;99.90;;;;;;5016121;28;20904;-80
2022/06/14 03:05:47;;;;;;;7.73;6.27;;;13.00;99.90;;;;;;5016464;28;20867;-80
2022/06/14 03:08:18;;;;;;;8.73;7.23;;;13.00;99.90;;;;;;5038982;23;20489;-81
2022/06/14 03:10:55;;;;;;;8.43;6.73;;;13.00;99.90;;;;;;5015284;28;20450;-81
2022/06/14 03:13:29;;;;;;;7.97;7.37;;;13.00;99.90;;;;;;5018644;28;22072;-81
2022/06/14 03:16:05;;;;;;;7.00;6.13;;;12.90;99.90;;;;;;5019925;28;20453;-81
2022/06/14 03:18:39;;;;;;;7.60;6.80;;;13.00;99.90;;;;;;5015198;28;20473;-81
2022/06/14 03:21:15;;;;;;;6.33;5.70;;;13.00;99.90;;;;;;5015008;28;20454;-81
2022/06/14 03:23:45;;;;;;;7.30;6.67;;;12.90;99.90;;;;;;5015238;28;20449;-81
2022/06/14 03:26:20;;;;;;;6.70;6.20;;;12.90;99.90;;;;;;5014913;28;20457;-81
2022/06/14 03:28:51;;;;;;;7.77;5.87;;;12.90;99.90;;;;;;5015201;28;20451;-81
2022/06/14 03:31:24;;;;;;;6.30;5.70;;;12.90;99.90;;;;;;5015387;28;20481;-81
2022/06/14 03:33:57;;;;;;;8.07;6.40;;;13.00;99.90;;;;;;5015082;28;20461;-81
2022/06/14 03:36:24;;;;;;;6.90;6.30;;;13.00;99.90;;;;;;5015356;28;20446;-81
2022/06/14 03:38:54;;;;;;;11.03;7.23;;;12.90;99.90;;;;;;5017887;28;21000;-81
2022/06/14 03:41:24;;;;;;;7.20;6.70;;;12.90;99.90;;;;;;5018606;28;20441;-81
2022/06/14 03:43:53;;;;;;;6.80;6.20;;;12.90;99.90;;;;;;5018689;28;20450;-81
2022/06/14 03:46:29;;;;;;;7.33;6.67;;;12.90;99.90;;;;;;5019036;28;20460;-81
2022/06/14 03:49:01;;;;;;;7.60;6.63;;;12.90;99.90;;;;;;5018057;28;20560;-81
2022/06/14 03:51:39;;;;;;;8.13;7.07;;;12.90;99.90;;;;;;5018639;28;20478;-81
2022/06/14 03:54:23;;;;;;;6.97;6.13;;;13.00;99.90;;;;;;5018674;28;20532;-81
2022/06/14 03:57:03;;;;;;;7.63;6.87;;;13.00;99.90;;;;;;5018541;28;20952;-81
2022/06/14 03:59:48;;;;;;;8.10;7.30;;;13.00;99.90;;;;;;5018674;28;20476;-81
2022/06/14 04:02:21;;;;;;;7.93;7.00;;;13.00;99.90;;;;;;5018945;28;20458;-81
2022/06/14 04:04:56;;;;;;;6.37;5.77;;;13.10;99.90;;;;;;5020049;28;20449;-82
2022/06/14 04:07:35;;;;;;;6.50;6.00;;;13.10;99.90;;;;;;5022203;28;20453;-81
2022/06/14 04:10:12;;;;;;;9.00;8.13;;;13.10;99.90;;;;;;5022049;28;20489;-81
2022/06/14 04:12:48;;;;;;;7.47;6.77;;;13.10;99.90;;;;;;5022118;28;20489;-81
2022/06/14 04:15:27;;;;;;;8.10;7.23;;;13.00;99.90;;;;;;5022068;28;20454;-82
2022/06/14 04:18:34;;;;;;;8.20;7.37;;;13.00;99.90;;;;;;5021765;28;20793;-82
2022/06/14 04:21:00;;;;;;;7.07;6.40;;;13.00;99.90;;;;;;5021265;28;20473;-82
2022/06/14 04:23:36;;;;;;;7.33;6.60;;;13.00;99.90;;;;;;5021560;28;20451;-81
2022/06/14 04:26:09;;;;;;;8.47;7.50;;;13.10;99.90;;;;;;5022448;28;20463;-82
2022/06/14 04:28:45;;;;;;;8.13;7.33;;;13.10;99.90;;;;;;5021429;28;20477;-81
2022/06/14 04:31:15;;;;;;;7.90;7.20;;;13.10;99.90;;;;;;5021308;28;20461;-81
2022/06/14 04:33:47;;;;;;;9.00;6.40;;;13.20;99.90;;;;;;5022217;28;20445;-82
2022/06/14 04:36:18;;;;;;;8.83;8.03;;;13.20;99.90;;;;;;5021995;28;20477;-81
2022/06/14 04:38:50;;;;;;;9.20;7.70;;;13.20;99.90;;;;;;5021889;28;20482;-82
2022/06/14 04:41:21;;;;;;;11.37;8.13;;;13.30;99.90;;;;;;5021093;28;20972;-81
2022/06/14 04:43:55;;;;;;;7.83;7.00;;;13.30;99.90;;;;;;5021752;28;20449;-82
2022/06/14 04:46:25;;;;;;;9.90;7.93;;;13.30;99.90;;;;;;5021682;28;20461;-82
2022/06/14 04:48:58;;;;;;;10.57;8.00;;;13.40;99.90;;;;;;5020038;28;20485;-81
2022/06/14 04:51:30;;;;;;;9.27;7.43;;;13.50;99.90;;;;;;5021441;28;20457;-82
2022/06/14 04:54:04;;;;;;;13.67;7.97;;;13.50;99.90;;;;;;5021108;28;20454;-81
2022/06/14 04:56:35;;;;;;;8.90;7.77;;;13.60;99.90;;;;;;5022092;28;20453;-81
2022/06/14 04:59:08;;;;;;;9.83;7.23;;;13.60;99.90;;;;;;5022462;28;20474;-80
2022/06/14 05:01:39;;;;;;;9.23;7.80;;;13.60;99.90;;;;;;5022335;28;20461;-81
2022/06/14 05:04:13;;;;;;;11.90;8.17;;;13.70;99.90;;;;;;5022380;28;20943;-81
2022/06/14 05:06:44;;;;;;;11.20;8.33;;;13.70;99.90;;;;;;5022145;28;20454;-81
2022/06/14 05:09:16;;;;;;;13.60;10.03;;;13.80;99.90;;;;;;5022234;28;20481;-81
2022/06/14 05:11:50;;;;;;;9.40;8.13;;;13.90;99.90;;;;;;5021826;28;20486;-82
2022/06/14 05:14:21;;;;;;;7.43;6.60;;;13.90;99.90;;;;;;5022807;28;20454;-81
2022/06/14 05:16:53;;;;;;;8.47;7.00;;;14.00;99.90;;;;;;5022996;28;20454;-81
2022/06/14 05:19:26;;;;;;;10.20;7.57;;;14.00;99.90;;;;;;5006950;28;20475;-80
2022/06/14 05:21:59;;;;;;;7.50;6.80;;;14.10;99.90;;;;;;5030497;28;20435;-79
2022/06/14 05:24:28;;;;;;;8.83;7.97;;;14.20;99.90;;;;;;5037508;28;20449;-80
2022/06/14 05:27:14;;;;;;;11.23;7.37;;;14.30;99.90;;;;;;5034535;28;20924;-82
2022/06/14 05:29:47;;;;;;;9.67;8.77;;;14.30;99.90;;;;;;5023903;28;20474;-82
2022/06/14 05:32:26;;;;;;;7.13;6.50;;;14.40;99.90;;;;;;5021592;28;20852;-82
2022/06/14 05:35:03;;;;;;;9.03;7.40;;;14.40;99.90;;;;;;5023526;28;20448;-81
2022/06/14 05:37:37;;;;;;;9.20;6.90;;;14.50;99.90;;;;;;5021797;28;20447;-82
2022/06/14 05:40:18;;;;;;;7.20;6.70;;;14.60;99.90;;;;;;5023047;28;20478;-80
2022/06/14 05:42:52;;;;;;;10.17;7.00;;;14.70;99.90;;;;;;5022078;28;20451;-82
2022/06/14 05:45:23;;;;;;;8.03;7.10;;;14.80;99.90;;;;;;5022746;28;20455;-82
2022/06/14 05:47:54;;;;;;;8.30;7.27;;;14.70;99.90;;;;;;5022213;28;20450;-82
2022/06/14 05:50:26;;;;;;;8.30;7.47;;;14.70;99.90;;;;;;5021740;28;20455;-82
2022/06/14 05:52:57;;;;;;;7.63;6.50;;;14.70;99.90;;;;;;5023868;28;20486;-81
2022/06/14 05:55:28;;;;;;;7.57;6.60;;;14.70;99.90;;;;;;5023035;28;20457;-82
2022/06/14 05:57:59;;;;;;;8.60;7.57;;;14.80;99.90;;;;;;5022893;28;20457;-81
2022/06/14 06:00:33;;;;;;;6.77;5.80;;;15.00;99.90;;;;;;5019902;28;20460;-81
2022/06/14 06:03:06;;;;;;;6.93;6.00;;;15.10;99.90;;;;;;5017578;28;20456;-81
2022/06/14 06:05:39;;;;;;;7.43;6.73;;;15.20;99.90;;;;;;5017380;28;20454;-81
2022/06/14 06:08:12;;;;;;;6.83;6.20;;;15.30;99.90;;;;;;5017788;28;22669;-81
2022/06/14 06:10:42;;;;;;;7.50;6.80;;;15.40;99.90;;;;;;5017153;28;20463;-81
2022/06/14 06:13:14;;;;;;;6.83;6.13;;;15.50;99.90;;;;;;5016635;28;20487;-83
2022/06/14 06:15:46;;;;;;;7.70;5.80;;;15.60;99.90;;;;;;5022509;28;20485;-82
2022/06/14 06:18:16;;;;;;;7.67;6.73;;;15.70;99.90;;;;;;5023080;28;20481;-86
2022/06/14 06:20:48;;;;;;;7.27;6.63;;;15.80;99.90;;;;;;5024953;28;20446;-87
2022/06/14 06:23:20;;;;;;;8.17;7.07;;;15.90;99.90;;;;;;5023855;28;20455;-86
2022/06/14 06:25:50;;;;;;;9.07;7.17;;;16.10;99.90;;;;;;5024573;28;20965;-86
2022/06/14 06:28:21;;;;;;;6.50;5.90;;;16.20;99.90;;;;;;5022862;28;20478;-84
2022/06/14 06:30:53;;;;;;;6.40;5.90;;;16.30;99.90;;;;;;5018666;28;20457;-84
2022/06/14 06:33:22;;;;;;;7.10;6.10;;;16.40;99.90;;;;;;5017314;28;20507;-83
2022/06/14 06:36:00;;;;;;;6.33;5.70;;;16.50;99.90;;;;;;5017722;28;20456;-83
2022/06/14 06:38:37;;;;;;;7.43;6.37;;;16.60;99.90;;;;;;5017945;28;20483;-83
2022/06/14 06:43:54;;;;;;;6.83;6.10;;;16.90;99.90;;;;;;5005464;28;20496;-80
2022/06/14 06:46:27;;;;;;;8.07;5.90;;;16.90;99.90;;;;;;5004842;28;20481;-81
2022/06/14 06:49:00;;;;;;;7.13;6.53;;;17.00;99.90;;;;;;5003976;28;20570;-81
2022/06/14 06:51:35;;;;;;;6.23;5.63;;;17.10;99.90;;;;;;5003929;28;20486;-81
2022/06/14 06:54:08;;;;;;;9.53;6.90;;;17.30;99.90;;;;;;5004097;28;20488;-81
2022/06/14 06:56:40;;;;;;;6.70;6.10;;;17.40;99.90;;;;;;5005589;28;20471;-81
2022/06/14 06:59:16;;;;;;;6.53;5.17;;;17.40;99.90;;;;;;5004632;28;20523;-82
2022/06/14 07:01:49;;;;;;;6.57;5.83;;;17.40;99.90;;;;;;5010418;28;20461;-84
2022/06/14 07:04:20;;;;;;;6.20;5.70;;;17.50;99.90;;;;;;5004180;28;20433;-84
2022/06/14 07:06:52;;;;;;;9.53;6.10;;;17.60;99.90;;;;;;5023501;28;20457;-84
2022/06/14 07:09:25;;;;;;;6.57;5.50;;;17.70;99.90;;;;;;5026732;28;20503;-84
2022/06/14 07:11:55;;;;;;;7.30;5.50;;;17.80;99.90;;;;;;5025852;28;20813;-84
2022/06/14 07:14:26;;;;;;;6.07;5.67;;;17.80;99.90;;;;;;5023185;28;20435;-84
2022/06/14 07:17:02;;;;;;;6.73;6.00;;;17.90;99.90;;;;;;5021741;28;20457;-84
2022/06/14 07:19:36;;;;;;;7.67;5.40;;;18.00;99.30;;;;;;5014525;28;20476;-79
2022/06/14 07:22:09;;;;;;;6.60;5.73;;;18.00;99.90;;;;;;5021926;28;20450;-81
2022/06/14 07:24:44;;;;;;;6.57;5.97;;;18.00;99.90;;;;;;5026316;28;20461;-82
2022/06/14 07:27:16;;;;;;;6.37;5.87;;;18.00;99.90;;;;;;5026894;28;20459;-82
2022/06/14 07:30:02;;;;;;;7.00;6.40;;;18.10;99.40;;;;;;5026596;28;20474;-82
2022/06/14 07:32:35;;;;;;;6.57;5.47;;;18.20;99.50;;;;;;5017267;28;20525;-82
2022/06/14 07:35:02;;;;;;;6.40;5.80;;;18.20;99.20;;;;;;5002476;28;20453;-83
2022/06/14 07:37:33;;;;;;;6.40;5.77;;;18.20;98.90;;;;;;5015475;28;20464;-80
2022/06/14 07:40:07;;;;;;;7.67;6.87;;;18.30;98.30;;;;;;5027577;28;20476;-80
2022/06/14 07:42:40;;;;;;;8.90;6.07;;;18.40;98.50;;;;;;5026962;28;20508;-81
2022/06/14 07:45:15;;;;;;;7.63;6.03;;;18.40;98.40;;;;;;5026858;28;20453;-83
2022/06/14 07:47:48;;;;;;;6.30;5.47;;;18.40;97.30;;;;;;5019436;28;20456;-81
2022/06/14 07:50:22;;;;;;;6.63;5.90;;;18.40;97.20;;;;;;5018860;28;20938;-80
2022/06/14 07:52:53;;;;;;;9.33;5.57;;;18.50;98.40;;;;;;5021537;28;20623;-82
2022/06/14 07:55:22;;;;;;;5.97;5.40;;;18.60;98.20;;;;;;5023102;28;20567;-81
2022/06/14 07:57:53;;;;;;;6.83;5.60;;;18.50;97.60;;;;;;5019056;28;20812;-81
2022/06/14 08:03:17;;;;;;;6.20;5.27;;;18.70;96.20;;;;;;5009161;28;20461;-82
2022/06/14 08:05:47;;;;;;;6.67;5.60;;;18.80;97.00;;;;;;5018082;28;20457;-84
2022/06/14 08:08:19;;;;;;;8.17;5.63;;;18.90;97.50;;;;;;5017290;28;20550;-82
2022/06/14 08:10:52;;;;;;;5.90;5.37;;;19.00;97.90;;;;;;5028479;28;20449;-82
2022/06/14 08:13:23;;;;;;;4.77;4.37;;;19.00;96.30;;;;;;5020663;28;20485;-83
2022/06/14 08:15:52;;;;;;;5.97;5.43;;;19.20;96.10;;;;;;5020820;28;20951;-83
2022/06/14 08:18:26;;;;;;;5.83;5.40;;;19.30;96.60;;;;;;5020880;28;20532;-82
2022/06/14 08:20:57;;;;;;;5.60;5.20;;;19.30;96.50;;;;;;5021982;28;20455;-82
2022/06/14 08:23:28;;;;;;;5.00;4.40;;;19.40;95.50;;;;;;5020139;28;20465;-84
2022/06/14 08:26:03;;;;;;;5.67;5.27;;;19.40;94.70;;;;;;5020112;28;20461;-85
2022/06/14 08:28:34;;;;;;;5.03;4.63;;;19.50;94.90;;;;;;5004729;28;20486;-84
2022/06/14 08:31:08;;;;;;;6.53;5.23;;;19.60;94.40;;;;;;5004826;28;20794;-83
2022/06/14 08:33:41;;;;;;;6.97;4.50;;;19.70;93.90;;;;;;5000959;28;20490;-83
2022/06/14 08:36:12;;;;;;;5.83;5.30;;;19.80;93.90;;;;;;5018798;28;20454;-84
2022/06/14 08:38:45;;;;;;;4.90;4.37;;;19.90;94.00;;;;;;5005899;28;20461;-81
2022/06/14 08:41:27;;;;;;;4.67;4.20;;;20.00;92.80;;;;;;5017814;28;20951;-82
2022/06/14 08:43:58;;;;;;;4.80;4.20;;;20.10;91.70;;;;;;5009318;28;20442;-84
2022/06/14 08:46:39;;;;;;;4.37;3.97;;;20.10;92.60;;;;;;5009874;28;20467;-82
2022/06/14 08:49:20;;;;;;;5.40;3.80;;;20.20;92.60;;;;;;5004186;28;20466;-80
2022/06/14 08:52:19;;;;;;;4.50;4.20;;;20.30;93.70;;;;;;5008356;28;20457;-83
2022/06/14 08:55:02;;;;;;;5.10;4.60;;;20.30;91.50;;;;;;5015170;28;20481;-83
2022/06/14 09:01:12;;;;;;;7.53;5.17;;;20.50;92.20;;;;;;4966458;28;20551;-85
2022/06/14 09:04:07;;;;;;;4.70;4.30;;;20.60;92.80;;;;;;5020562;28;20465;-84
2022/06/14 09:07:29;;;;;;;5.00;4.50;;;20.70;92.20;;;;;;5008526;28;20466;-80
2022/06/14 09:10:33;;;;;;;4.37;3.97;;;20.80;92.90;;;;;;5023214;28;20484;-87
2022/06/14 09:13:29;;;;;;;5.07;4.20;;;21.00;91.80;;;;;;5009255;28;20502;-85
2022/06/14 09:16:32;;;;;;;5.10;4.63;;;21.10;90.70;;;;;;5020285;28;20459;-79
2022/06/14 09:19:37;;;;;;;8.97;5.73;;;21.20;90.40;;;;;;5008452;28;20478;-86
2022/06/14 09:22:34;;;;;;;5.97;4.83;;;21.30;90.20;;;;;;4987429;28;20983;-86
2022/06/14 09:25:22;;;;;;;5.10;4.50;;;21.30;89.30;;;;;;5007453;28;20460;-82
2022/06/14 09:28:24;;;;;;;6.50;4.40;;;21.40;90.80;;;;;;5018474;28;20471;-84
2022/06/14 09:31:10;;;;;;;5.97;3.50;;;21.60;87.80;;;;;;5021684;28;20453;-83
2022/06/14 09:34:09;;;;;;;4.00;3.70;;;21.70;86.30;;;;;;5012113;28;20485;-83
2022/06/14 09:40:34;;;;;;;25.40;15.23;;;21.70;80.70;;;;;;5005673;28;20432;-80
2022/06/14 09:43:36;;;;;;;22.50;11.63;;;21.80;85.80;;;;;;5019634;28;20444;-84
2022/06/14 09:46:25;;;;;;;6.40;5.03;;;22.10;86.00;;;;;;5002004;28;20973;-84
2022/06/14 09:49:24;;;;;;;4.43;3.50;;;22.10;81.30;;;;;;5019279;28;20473;-85
2022/06/14 09:52:26;;;;;;;4.20;3.90;;;22.00;80.00;;;;;;4995908;28;20470;-83
2022/06/14 09:55:25;;;;;;;5.10;3.80;;;21.90;80.60;;;;;;5020108;28;20489;-83
2022/06/14 09:58:22;;;;;;;6.70;4.97;;;22.00;78.90;;;;;;5022283;28;20463;-79
2022/06/14 10:00:55;;;;;;;4.93;3.93;;;22.10;81.10;;;;;;5021823;28;20450;-82
2022/06/14 10:03:54;;;;;;;4.10;3.63;;;22.30;83.20;;;;;;5021085;28;20445;-82
2022/06/14 10:06:48;;;;;;;4.47;3.27;;;22.50;83.90;;;;;;5023954;28;20449;-84
2022/06/14 10:09:32;;;;;;;5.37;4.20;;;22.40;75.70;;;;;;5021767;28;20496;-82
2022/06/14 10:12:16;;;;;;;5.27;3.60;;;22.20;77.30;;;;;;5021064;28;20469;-83
2022/06/14 10:14:52;;;;;;;4.03;3.73;;;22.20;75.10;;;;;;5021858;28;20489;-84
2022/06/14 10:17:57;;;;;;;4.50;3.90;;;22.20;77.20;;;;;;5021397;28;20464;-83
2022/06/14 10:20:54;;;;;;;5.33;3.63;;;22.30;80.10;;;;;;5020525;28;20483;-84
2022/06/14 10:23:49;;;;;;;7.40;3.97;;;22.30;76.10;;;;;;5022329;28;20452;-84
2022/06/14 10:29:32;;;;;;;4.23;3.50;;;22.80;75.00;;;;;;5020811;28;20529;-83
2022/06/14 10:32:38;;;;;;;5.13;4.30;;;23.30;75.00;;;;;;5021007;28;20458;-83
2022/06/14 10:35:14;;;;;;;3.60;3.27;;;23.60;73.00;;;;;;5021362;28;20503;-81
2022/06/14 10:38:07;;;;;;;6.20;4.10;;;23.70;73.20;;;;;;5021066;28;20488;-82
2022/06/14 10:40:42;;;;;;;3.60;3.40;;;23.80;73.30;;;;;;5020024;28;20450;-84
2022/06/14 10:43:16;;;;;;;3.60;3.30;;;24.00;69.80;;;;;;5020424;28;20450;-82
2022/06/14 10:45:51;;;;;;;3.57;2.90;;;24.10;71.40;;;;;;5020411;28;20614;-83
2022/06/14 10:48:50;;;;;;;3.83;3.53;;;24.30;73.60;;;;;;5020781;28;20473;-84
2022/06/14 10:51:31;;;;;;;5.80;4.27;;;24.50;69.50;;;;;;5003193;28;20452;-80
2022/06/14 10:54:05;;;;;;;5.77;3.30;;;24.70;67.80;;;;;;5033091;28;20510;-81
2022/06/14 10:56:48;;;;;;;4.67;4.30;;;24.80;69.00;;;;;;5025959;28;20505;-78
2022/06/14 10:59:39;;;;;;;3.70;3.20;;;25.00;65.40;;;;;;5029008;28;20471;-81
2022/06/14 11:02:15;;;;;;;3.10;2.90;;;25.40;65.50;;;;;;5020336;28;20459;-83
2022/06/14 11:04:49;;;;;;;5.33;4.77;;;25.60;61.60;;;;;;5019182;28;20458;-82
2022/06/14 11:07:36;;;;;;;5.40;2.90;;;25.80;57.80;;;;;;5018009;28;20460;-82
2022/06/14 11:10:26;;;;;;;4.70;3.87;;;26.00;58.20;;;;;;5018431;28;20475;-82
2022/06/14 11:13:02;;;;;;;3.57;2.67;;;26.20;58.00;;;;;;5017929;28;20453;-82
2022/06/14 11:15:38;;;;;;;2.97;2.67;;;26.60;56.60;;;;;;5023279;28;20449;-82
2022/06/14 11:18:25;;;;;;;3.43;3.23;;;26.90;53.40;;;;;;5027211;28;20431;-83
2022/06/14 11:21:01;;;;;;;4.00;3.60;;;27.10;53.30;;;;;;5027735;28;20480;-83
2022/06/14 11:23:36;;;;;;;3.83;3.37;;;27.30;53.80;;;;;;5027022;28;20443;-82
2022/06/14 11:26:10;;;;;;;3.67;3.37;;;27.60;54.00;;;;;;5025930;28;20857;-81
2022/06/14 11:28:47;;;;;;;6.10;3.20;;;27.90;52.90;;;;;;5016557;28;20516;-78
2022/06/14 11:31:24;;;;;;;3.67;3.07;;;28.20;53.50;;;;;;5032821;28;20465;-80
2022/06/14 11:34:19;;;;;;;5.13;3.27;;;28.40;51.30;;;;;;5032775;28;20487;-81
2022/06/14 11:37:04;;;;;;;2.93;2.73;;;28.50;50.50;;;;;;5029651;28;20459;-80
2022/06/14 11:39:38;;;;;;;3.43;3.23;;;28.70;53.30;;;;;;5033000;28;20475;-86
2022/06/14 11:42:10;;;;;;;4.57;3.53;;;29.20;54.30;;;;;;5012993;28;20447;-82
2022/06/14 11:44:57;;;;;;;3.63;3.30;;;29.60;49.60;;;;;;5029423;28;20851;-83
2022/06/14 11:47:30;;;;;;;3.87;3.10;;;29.60;49.10;;;;;;5029975;28;20518;-83
2022/06/14 11:50:06;;;;;;;4.07;3.77;;;29.80;48.80;;;;;;5016932;28;21007;-80
2022/06/14 11:53:00;;;;;;;3.30;2.73;;;30.20;48.80;;;;;;5017135;28;20451;-83
2022/06/14 11:55:34;;;;;;;4.03;2.70;;;30.70;49.30;;;;;;5014577;28;20865;-83
2022/06/14 11:58:12;;;;;;;3.70;3.40;;;31.10;45.40;;;;;;5017419;28;20452;-83
2022/06/14 12:00:52;;;;;;;3.00;2.80;;;31.20;43.50;;;;;;5019226;28;20458;-85
2022/06/14 12:03:32;;;;;;;3.37;2.77;;;31.60;42.70;;;;;;5005392;28;20489;-82
2022/06/14 12:06:08;;;;;;;2.87;2.67;;;31.80;43.20;;;;;;5013596;28;20449;-84
2022/06/14 12:09:00;;;;;;;3.20;2.90;;;32.00;44.70;;;;;;5011717;28;20532;-84
2022/06/14 12:11:34;;;;;;;3.10;2.90;;;32.20;42.30;;;;;;5006606;28;20558;-83
2022/06/14 12:14:25;;;;;;;2.93;2.63;;;32.70;41.40;;;;;;5019222;28;20516;-79
2022/06/14 12:16:59;;;;;;;3.40;2.60;;;33.20;43.50;;;;;;5023726;28;20440;-79
2022/06/14 12:19:31;;;;;;;3.43;3.20;;;33.80;41.50;;;;;;5029779;28;20454;-78
2022/06/14 12:22:26;;;;;;;2.90;2.70;;;34.10;39.40;;;;;;5037281;28;20450;-78
2022/06/14 12:27:44;;;;;;;2.80;2.60;;;34.40;36.20;;;;;;5019528;28;20479;-80
2022/06/14 12:30:13;;;;;;;2.70;2.50;;;34.50;36.60;;;;;;5017497;28;20459;-78
2022/06/14 12:32:44;;;;;;;2.90;2.67;;;34.60;34.10;;;;;;5021853;28;20438;-79
2022/06/14 12:35:16;;;;;;;3.37;2.57;;;34.60;34.50;;;;;;5038117;28;20489;-79
2022/06/14 12:37:48;;;;;;;4.00;3.30;;;34.80;34.10;;;;;;5036442;28;20450;-83
2022/06/14 12:40:21;;;;;;;3.03;2.50;;;35.20;34.30;;;;;;5036492;28;20470;-80
2022/06/14 12:43:01;;;;;;;2.57;2.37;;;35.70;34.40;;;;;;5036821;28;20450;-78
2022/06/14 12:45:32;;;;;;;6.27;3.07;;;36.30;32.80;;;;;;5037077;28;20522;-78
2022/06/14 12:48:15;;;;;;;3.00;2.80;;;36.90;34.30;;;;;;5037076;28;20437;-79
2022/06/14 12:50:45;;;;;;;3.10;2.80;;;37.40;32.40;;;;;;5038520;28;20441;-79
2022/06/14 12:53:17;;;;;;;1.90;1.77;;;37.70;30.90;;;;;;5038008;28;20450;-78
2022/06/14 12:55:49;;;;;;;2.40;2.30;;;37.80;27.50;;;;;;5032703;28;20461;-83
2022/06/14 12:58:30;;;;;;;2.80;2.60;;;37.80;24.90;;;;;;5033681;28;20466;-81
2022/06/14 13:01:12;;;;;;;2.50;2.30;;;37.50;26.80;;;;;;5021712;28;20454;-80
2022/06/14 13:03:48;;;;;;;2.70;2.53;;;37.60;28.60;;;;;;5020633;28;20935;-84
2022/06/14 13:06:34;;;;;;;2.70;2.50;;;37.60;27.10;;;;;;5009590;28;20465;-84
2022/06/14 13:09:10;;;;;;;4.27;3.10;;;37.50;27.60;;;;;;5019116;28;20497;-82
2022/06/14 13:11:57;;;;;;;3.33;2.97;;;37.30;26.60;;;;;;5004015;28;20455;-83
2022/06/14 13:14:29;;;;;;;4.03;3.73;;;37.50;28.50;;;;;;5012535;28;20443;-84
2022/06/14 13:17:12;;;;;;;4.30;3.20;;;37.70;28.80;;;;;;5013458;28;20987;-83
2022/06/14 13:19:45;;;;;;;2.60;2.10;;;38.00;28.70;;;;;;5003193;28;20463;-83
2022/06/14 13:22:49;;;;;;;3.30;2.73;;;38.40;27.70;;;;;;5018536;28;20443;-83
2022/06/14 13:25:33;;;;;;;2.43;2.33;;;38.50;25.70;;;;;;5017257;28;21006;-83
2022/06/14 13:48:07;;;;;;;2.97;2.73;;;40.60;24.00;;;;;;4954013;28;20521;-80
2022/06/14 13:54:36;;;;;;;2.40;2.20;;;41.10;23.20;;;;;;5018711;28;20405;-85
2022/06/14 13:57:14;;;;;;;2.80;2.60;;;41.70;24.20;;;;;;5034111;28;20454;-85
2022/06/14 13:59:44;;;;;;;2.80;2.57;;;42.30;22.90;;;;;;5035988;28;20472;-85
2022/06/14 14:02:20;;;;;;;3.03;2.43;;;42.80;23.60;;;;;;5020875;28;21064;-84
2022/06/14 14:04:54;;;;;;;2.87;2.63;;;42.60;22.90;;;;;;5036574;28;20484;-85
2022/06/14 14:07:28;;;;;;;3.20;2.87;;;41.00;24.60;;;;;;5036396;28;20433;-85
2022/06/14 14:13:17;;;;;;;3.60;3.20;;;40.60;24.80;;;;;;5042789;28;20459;-85
2022/06/14 14:15:51;;;;;;;2.40;2.30;;;41.00;24.20;;;;;;5067467;28;20496;-85
2022/06/14 14:18:48;;;;;;;2.73;2.50;;;41.80;24.50;;;;;;5076487;28;20472;-85
2022/06/14 14:21:21;;;;;;;3.77;3.40;;;42.20;23.20;;;;;;5051435;28;20446;-84